Time;durP1;ratioP1;P1;durP2;ratioP2;P2;SDS_P1;SDS_P2;PMS_P1;PMS_P2;Temp;Humidity;BMP_temperature;BMP_pressure;BME280_temperature;BME280_humidity;BME280_pressure;Samples;Min_cycle;Max_cycle;Signal;HPM_P1;HPM_P2
2022/07/29 00:01:56;;;;;;;5.82;0.90;;;12.80;99.90;;;;;;4937462;29;20508;-70
2022/07/29 00:04:24;;;;;;;4.78;1.02;;;12.90;99.90;;;;;;4937695;29;20106;-71
2022/07/29 00:06:52;;;;;;;3.83;0.70;;;13.00;99.90;;;;;;4937864;29;20020;-72
2022/07/29 00:09:19;;;;;;;4.00;0.90;;;13.00;99.90;;;;;;4937507;29;20055;-70
2022/07/29 00:11:47;;;;;;;4.93;1.60;;;13.20;99.90;;;;;;4937472;29;20074;-71
2022/07/29 00:14:14;;;;;;;3.20;1.10;;;13.40;99.90;;;;;;4937536;29;20102;-71
2022/07/29 00:16:42;;;;;;;6.78;1.00;;;13.30;99.90;;;;;;4937911;29;20023;-71
2022/07/29 00:19:09;;;;;;;5.10;0.88;;;13.30;99.90;;;;;;4937273;29;20030;-72
2022/07/29 00:21:36;;;;;;;4.43;0.95;;;13.40;99.90;;;;;;4920889;29;20023;-72
2022/07/29 00:24:04;;;;;;;2.65;0.95;;;13.50;99.90;;;;;;4919481;29;20416;-71
2022/07/29 00:26:32;;;;;;;3.92;1.35;;;13.50;99.90;;;;;;4919773;29;20030;-72
2022/07/29 00:29:01;;;;;;;2.78;1.30;;;13.60;99.90;;;;;;4920031;29;20620;-72
2022/07/29 00:31:28;;;;;;;3.20;0.68;;;13.70;99.90;;;;;;4937248;29;20055;-72
2022/07/29 00:33:56;;;;;;;2.47;0.80;;;13.70;99.90;;;;;;4920052;29;20093;-72
2022/07/29 00:36:24;;;;;;;3.78;1.10;;;13.70;99.90;;;;;;4919745;29;20035;-71
2022/07/29 00:38:54;;;;;;;2.85;1.10;;;13.50;99.90;;;;;;4937075;29;20035;-71
2022/07/29 00:41:21;;;;;;;;;;;13.60;99.90;;;;;;4937911;29;20074;-71
2022/07/29 00:43:48;;;;;;;2.88;0.98;;;13.80;99.90;;;;;;4919362;29;20005;-71
2022/07/29 00:46:16;;;;;;;1.90;0.82;;;13.80;99.90;;;;;;4919739;29;20114;-72
2022/07/29 00:48:46;;;;;;;1.10;0.60;;;13.80;99.90;;;;;;4936336;29;20102;-72
2022/07/29 00:51:14;;;;;;;11.05;2.28;;;13.80;99.90;;;;;;4919503;29;20036;-71
2022/07/29 00:53:43;;;;;;;2.55;1.13;;;13.90;99.90;;;;;;4919385;29;20519;-71
2022/07/29 00:56:10;;;;;;;2.08;0.90;;;14.10;99.90;;;;;;4936447;29;20496;-71
2022/07/29 00:58:38;;;;;;;2.70;0.70;;;14.10;99.90;;;;;;4936815;29;20028;-70
2022/07/29 01:01:05;;;;;;;1.92;0.85;;;14.10;99.90;;;;;;4903746;29;20345;-70
2022/07/29 01:03:33;;;;;;;1.33;0.73;;;14.00;99.90;;;;;;4919222;29;20027;-71
2022/07/29 01:06:01;;;;;;;2.50;0.63;;;14.20;99.90;;;;;;4903514;29;20024;-70
2022/07/29 01:08:28;;;;;;;2.25;0.70;;;14.40;99.90;;;;;;4936175;29;20050;-70
2022/07/29 01:10:56;;;;;;;4.70;0.90;;;14.40;99.90;;;;;;4936191;29;20075;-70
2022/07/29 01:13:24;;;;;;;1.92;0.60;;;14.20;99.90;;;;;;4918917;29;20050;-70
2022/07/29 01:15:59;;;;;;;2.60;0.80;;;14.20;99.90;;;;;;4936074;29;20032;-70
2022/07/29 01:18:42;;;;;;;2.22;0.60;;;14.20;99.90;;;;;;4919035;29;20027;-71
2022/07/29 01:21:35;;;;;;;1.08;0.60;;;14.30;99.90;;;;;;4935697;29;20028;-70
2022/07/29 01:24:23;;;;;;;4.28;1.10;;;14.40;99.90;;;;;;4935745;29;20134;-71
2022/07/29 01:27:26;;;;;;;1.17;0.70;;;14.40;99.90;;;;;;4918796;29;20047;-70
2022/07/29 01:30:00;;;;;;;0.90;0.60;;;14.50;99.90;;;;;;4918642;29;20039;-70
2022/07/29 01:32:31;;;;;;;3.88;1.10;;;14.50;99.90;;;;;;4935867;29;20480;-72
2022/07/29 01:35:17;;;;;;;3.92;1.67;;;14.70;99.90;;;;;;4919738;29;20050;-70
2022/07/29 01:37:49;;;;;;;2.38;1.05;;;14.80;99.90;;;;;;4936421;29;20032;-70
2022/07/29 01:40:26;;;;;;;2.05;1.00;;;14.90;99.90;;;;;;4936606;29;20483;-70
2022/07/29 01:42:58;;;;;;;2.00;0.70;;;14.80;99.90;;;;;;4919832;29;20032;-71
2022/07/29 01:45:35;;;;;;;2.90;0.98;;;14.80;99.90;;;;;;4935859;29;20019;-71
2022/07/29 01:48:16;;;;;;;3.92;0.85;;;15.00;99.90;;;;;;4918783;29;20035;-70
2022/07/29 01:51:14;;;;;;;2.42;0.57;;;15.00;99.80;;;;;;4935860;29;20496;-70
2022/07/29 01:54:02;;;;;;;3.30;0.85;;;15.00;99.80;;;;;;4911066;29;20036;-70
2022/07/29 01:56:33;;;;;;;1.42;0.98;;;15.10;99.90;;;;;;4920854;29;20576;-71
2022/07/29 01:59:03;;;;;;;2.95;0.93;;;15.10;99.90;;;;;;4923409;29;20040;-71
2022/07/29 02:01:33;;;;;;;3.65;0.90;;;15.30;99.40;;;;;;4939543;29;20024;-70
2022/07/29 02:04:09;;;;;;;2.55;0.98;;;15.30;99.70;;;;;;4922690;29;20031;-71
2022/07/29 02:06:40;;;;;;;1.40;0.80;;;15.40;98.60;;;;;;4906699;29;20059;-70
2022/07/29 02:09:10;;;;;;;1.75;0.80;;;15.30;98.60;;;;;;4939437;29;20019;-70
2022/07/29 02:11:39;;;;;;;1.53;0.70;;;15.50;98.50;;;;;;4939324;29;20055;-71
2022/07/29 02:14:10;;;;;;;2.10;0.80;;;15.70;98.60;;;;;;4922491;29;20352;-71
2022/07/29 02:16:38;;;;;;;;;;;15.70;99.10;;;;;;4922564;29;20064;-71
2022/07/29 02:19:08;;;;;;;3.95;0.80;;;15.40;97.20;;;;;;4939278;29;19950;-72
2022/07/29 02:21:36;;;;;;;1.95;0.50;;;15.30;97.40;;;;;;4922083;29;20028;-71
2022/07/29 02:24:05;;;;;;;3.45;0.73;;;15.30;97.00;;;;;;4939032;29;20527;-71
2022/07/29 02:26:34;;;;;;;3.05;0.75;;;15.30;97.50;;;;;;4938589;29;20032;-71
2022/07/29 02:29:02;;;;;;;2.10;0.77;;;15.60;97.40;;;;;;4906364;29;20126;-70
2022/07/29 02:31:34;;;;;;;1.73;0.50;;;15.70;96.50;;;;;;4938910;29;20027;-72
2022/07/29 02:34:05;;;;;;;2.88;0.90;;;15.80;96.20;;;;;;4922823;29;20040;-71
2022/07/29 02:36:33;;;;;;;2.90;0.70;;;15.90;95.50;;;;;;4922342;29;20087;-71
2022/07/29 02:39:05;;;;;;;3.63;1.00;;;16.20;96.30;;;;;;4938708;29;20036;-70
2022/07/29 02:41:47;;;;;;;3.00;0.80;;;16.00;94.70;;;;;;4938758;29;20031;-70
2022/07/29 02:44:19;;;;;;;2.47;0.98;;;16.10;95.80;;;;;;4907334;29;20027;-71
2022/07/29 02:46:53;;;;;;;1.85;0.95;;;16.20;95.70;;;;;;4938853;29;20032;-70
2022/07/29 02:49:28;;;;;;;4.40;0.95;;;16.30;94.80;;;;;;4939189;29;20028;-71
2022/07/29 02:52:00;;;;;;;3.25;0.80;;;16.30;94.70;;;;;;4921518;29;20028;-72
2022/07/29 02:54:52;;;;;;;2.78;0.80;;;16.40;96.20;;;;;;4938633;29;20024;-72
2022/07/29 02:57:26;;;;;;;5.38;1.05;;;16.10;93.20;;;;;;4921234;29;20032;-72
2022/07/29 02:59:57;;;;;;;2.50;0.80;;;16.30;95.70;;;;;;4921260;29;20531;-72
2022/07/29 03:02:27;;;;;;;2.08;0.88;;;16.50;94.70;;;;;;4921407;29;20476;-72
2022/07/29 03:04:58;;;;;;;1.77;0.70;;;16.30;94.10;;;;;;4921858;29;20024;-72
2022/07/29 03:07:26;;;;;;;0.98;0.55;;;16.30;93.20;;;;;;4920887;29;20056;-72
2022/07/29 03:09:54;;;;;;;3.08;0.85;;;16.30;92.50;;;;;;4938389;29;20036;-71
2022/07/29 03:12:22;;;;;;;1.52;0.63;;;16.10;91.40;;;;;;4921151;29;20429;-71
2022/07/29 03:14:50;;;;;;;2.38;0.80;;;16.10;91.00;;;;;;4938465;29;20449;-71
2022/07/29 03:17:18;;;;;;;2.25;0.75;;;16.00;90.90;;;;;;4920917;29;20330;-71
2022/07/29 03:19:46;;;;;;;2.40;0.70;;;16.20;91.60;;;;;;4905449;29;20062;-73
2022/07/29 03:22:14;;;;;;;1.05;0.60;;;16.30;91.50;;;;;;4920639;29;20030;-71
2022/07/29 03:24:41;;;;;;;1.98;0.70;;;16.30;91.30;;;;;;4937122;29;20032;-71
2022/07/29 03:27:08;;;;;;;1.65;0.57;;;16.40;91.90;;;;;;4936846;29;20039;-71
2022/07/29 03:29:36;;;;;;;1.92;0.65;;;16.40;91.50;;;;;;4937032;29;20551;-71
2022/07/29 03:32:05;;;;;;;2.50;0.75;;;16.40;91.20;;;;;;4937234;29;20024;-72
2022/07/29 03:34:33;;;;;;;1.75;0.65;;;16.60;92.20;;;;;;4936923;29;20023;-71
2022/07/29 03:37:00;;;;;;;1.85;0.60;;;16.50;90.20;;;;;;4904264;29;20035;-71
2022/07/29 03:39:33;;;;;;;2.78;0.73;;;16.30;91.00;;;;;;4936825;29;20056;-71
2022/07/29 03:42:02;;;;;;;2.38;0.70;;;16.20;91.30;;;;;;4937039;29;20055;-72
2022/07/29 03:44:31;;;;;;;2.80;0.85;;;16.30;91.70;;;;;;4904048;29;20050;-70
2022/07/29 03:47:01;;;;;;;2.22;0.60;;;16.30;92.60;;;;;;4919603;29;20449;-70
2022/07/29 03:49:30;;;;;;;2.03;0.85;;;16.40;90.90;;;;;;4919609;29;20028;-71
2022/07/29 03:52:01;;;;;;;3.13;0.85;;;16.50;92.40;;;;;;4919511;29;20488;-73
2022/07/29 03:54:28;;;;;;;1.75;0.60;;;16.50;91.60;;;;;;4919296;29;20373;-71
2022/07/29 03:56:59;;;;;;;2.22;0.88;;;16.70;90.80;;;;;;4919554;29;20035;-72
2022/07/29 03:59:28;;;;;;;2.42;0.85;;;16.50;90.70;;;;;;4903498;29;20171;-72
2022/07/29 04:01:57;;;;;;;3.80;0.80;;;16.50;91.10;;;;;;4936508;29;20028;-71
2022/07/29 04:04:26;;;;;;;3.65;1.00;;;16.40;92.80;;;;;;4903928;29;20032;-72
2022/07/29 04:06:53;;;;;;;3.70;0.65;;;16.50;92.10;;;;;;4903373;29;20044;-73
2022/07/29 04:09:21;;;;;;;2.78;0.93;;;16.50;92.20;;;;;;4919050;29;20406;-72
2022/07/29 04:11:49;;;;;;;0.80;0.50;;;16.40;91.10;;;;;;4936364;29;20024;-70
2022/07/29 04:14:16;;;;;;;1.52;0.68;;;16.30;91.20;;;;;;4919493;29;20110;-70
2022/07/29 04:16:43;;;;;;;2.15;0.60;;;16.20;92.10;;;;;;4936248;29;20034;-71
2022/07/29 04:19:10;;;;;;;3.30;0.70;;;16.10;91.70;;;;;;4918167;29;20032;-72
2022/07/29 04:21:39;;;;;;;2.88;0.70;;;16.10;91.40;;;;;;4936210;29;20093;-71
2022/07/29 04:24:07;;;;;;;2.17;0.70;;;16.00;91.70;;;;;;4807062;29;3331751;-72
2022/07/29 04:26:35;;;;;;;2.40;0.65;;;16.10;93.20;;;;;;4919262;29;20485;-71
2022/07/29 04:29:02;;;;;;;2.03;0.73;;;16.10;93.30;;;;;;4936872;29;20027;-71
2022/07/29 04:31:30;;;;;;;2.53;0.70;;;16.10;91.50;;;;;;4936745;29;20020;-71
2022/07/29 04:33:57;;;;;;;2.22;0.70;;;16.10;91.70;;;;;;4919673;29;20034;-71
2022/07/29 04:36:24;;;;;;;1.98;0.50;;;15.90;92.40;;;;;;4936563;29;20457;-70
2022/07/29 04:38:52;;;;;;;5.53;1.15;;;15.90;93.30;;;;;;4919472;29;20028;-71
2022/07/29 04:41:19;;;;;;;2.38;0.70;;;15.80;92.80;;;;;;4919465;29;20027;-70
2022/07/29 04:43:47;;;;;;;2.83;0.88;;;15.90;93.00;;;;;;4919336;29;20043;-68
2022/07/29 04:46:14;;;;;;;3.33;0.85;;;15.90;93.00;;;;;;4920071;29;20031;-71
2022/07/29 04:48:41;;;;;;;2.92;0.90;;;16.00;93.80;;;;;;4936622;29;20476;-71
2022/07/29 04:51:09;;;;;;;4.38;0.77;;;15.90;93.10;;;;;;4936495;29;20027;-70
2022/07/29 04:53:36;;;;;;;3.25;0.90;;;15.60;93.30;;;;;;4919518;29;20039;-69
2022/07/29 04:56:04;;;;;;;2.75;0.68;;;15.60;94.20;;;;;;4919171;29;20050;-70
2022/07/29 04:58:31;;;;;;;1.73;0.70;;;15.60;94.00;;;;;;4919288;29;20118;-70
2022/07/29 05:00:59;;;;;;;1.40;0.77;;;15.50;93.20;;;;;;4936770;29;20031;-70
2022/07/29 05:03:26;;;;;;;3.88;1.17;;;15.40;93.90;;;;;;4919557;29;20131;-72
2022/07/29 05:05:54;;;;;;;2.20;0.90;;;15.30;94.00;;;;;;4936655;29;20059;-70
2022/07/29 05:08:21;;;;;;;2.25;0.73;;;15.30;93.90;;;;;;4903651;29;20496;-71
2022/07/29 05:10:49;;;;;;;2.15;0.73;;;15.20;94.80;;;;;;4936291;29;20032;-70
2022/07/29 05:13:17;;;;;;;2.83;1.00;;;15.20;94.60;;;;;;4936330;29;20058;-71
2022/07/29 05:15:44;;;;;;;2.20;0.80;;;15.10;95.20;;;;;;4919341;29;20484;-71
2022/07/29 05:18:11;;;;;;;2.88;0.80;;;15.00;94.90;;;;;;4936108;29;20536;-70
2022/07/29 05:20:39;;;;;;;3.35;1.00;;;15.00;96.10;;;;;;4918978;29;20027;-70
2022/07/29 05:23:06;;;;;;;2.95;0.55;;;15.00;94.70;;;;;;4935868;29;20059;-71
2022/07/29 05:25:34;;;;;;;3.85;0.98;;;15.00;95.80;;;;;;4919288;29;20189;-71
2022/07/29 05:28:04;;;;;;;4.35;0.90;;;14.90;95.60;;;;;;4935927;29;20063;-71
2022/07/29 05:30:31;;;;;;;1.65;0.60;;;14.80;95.40;;;;;;4918943;29;20572;-71
2022/07/29 05:32:59;;;;;;;1.30;0.70;;;14.70;96.10;;;;;;4936027;29;20023;-72
2022/07/29 05:35:26;;;;;;;4.32;0.68;;;14.70;95.10;;;;;;4918800;29;20028;-72
2022/07/29 05:37:54;;;;;;;3.33;0.90;;;14.70;94.80;;;;;;4918612;29;20027;-71
2022/07/29 05:40:21;;;;;;;2.65;0.65;;;14.70;95.10;;;;;;4903234;29;20122;-70
2022/07/29 05:42:49;;;;;;;2.05;0.43;;;14.70;94.90;;;;;;4918750;29;20024;-70
2022/07/29 05:45:16;;;;;;;2.90;0.82;;;14.50;95.00;;;;;;4918694;29;20023;-70
2022/07/29 05:47:43;;;;;;;4.07;1.05;;;14.40;93.60;;;;;;4918738;29;20028;-70
2022/07/29 05:50:11;;;;;;;3.17;0.73;;;14.40;94.80;;;;;;4918639;29;20050;-71
2022/07/29 05:52:41;;;;;;;;;;;14.30;94.70;;;;;;4919754;29;20036;-70
2022/07/29 05:55:08;;;;;;;1.70;0.68;;;14.30;96.00;;;;;;4919182;29;19907;-71
2022/07/29 05:57:36;;;;;;;4.47;1.00;;;14.30;95.70;;;;;;4936007;29;20453;-70
2022/07/29 06:00:04;;;;;;;4.57;0.70;;;14.20;96.20;;;;;;4918960;29;20028;-70
2022/07/29 06:02:31;;;;;;;1.77;0.63;;;14.10;95.00;;;;;;4936010;29;20028;-70
2022/07/29 06:04:59;;;;;;;3.92;0.70;;;14.00;95.30;;;;;;4918960;29;20034;-71
2022/07/29 06:07:26;;;;;;;1.85;0.63;;;13.90;95.60;;;;;;4935979;29;20127;-71
2022/07/29 06:09:53;;;;;;;4.53;1.20;;;13.90;95.70;;;;;;4935679;29;20110;-70
2022/07/29 06:12:21;;;;;;;3.53;0.90;;;13.80;95.40;;;;;;4935836;29;20027;-71
2022/07/29 06:14:48;;;;;;;3.75;1.08;;;13.80;96.50;;;;;;4903366;29;20058;-70
2022/07/29 06:17:17;;;;;;;2.40;0.80;;;13.80;96.10;;;;;;4918570;29;20346;-69
2022/07/29 06:19:45;;;;;;;2.38;0.75;;;13.70;96.10;;;;;;4918813;29;20397;-69
2022/07/29 06:22:12;;;;;;;3.90;0.70;;;13.70;96.10;;;;;;4902559;29;20131;-70
2022/07/29 06:24:43;;;;;;;2.67;0.57;;;13.60;95.90;;;;;;4935698;29;20036;-70
2022/07/29 06:27:14;;;;;;;1.85;0.80;;;13.50;96.60;;;;;;4935925;29;20369;-70
2022/07/29 06:29:41;;;;;;;4.47;1.20;;;13.40;96.10;;;;;;4902906;29;20034;-71
2022/07/29 06:32:09;;;;;;;3.15;1.08;;;13.40;96.90;;;;;;4918257;29;20042;-71
2022/07/29 06:34:37;;;;;;;2.65;1.23;;;13.30;97.80;;;;;;4918175;29;20031;-70
2022/07/29 06:37:08;;;;;;;4.65;0.93;;;13.20;97.70;;;;;;4918761;29;20063;-70
2022/07/29 06:39:39;;;;;;;3.78;0.88;;;13.20;97.80;;;;;;4918235;29;20087;-70
2022/07/29 06:42:06;;;;;;;;;;;13.10;98.60;;;;;;4905011;29;20032;-70
2022/07/29 06:44:34;;;;;;;3.38;0.80;;;13.10;98.10;;;;;;4906161;29;19953;-71
2022/07/29 06:47:04;;;;;;;2.50;0.77;;;13.00;98.00;;;;;;4939165;29;20031;-70
2022/07/29 06:49:31;;;;;;;2.67;0.60;;;12.90;98.30;;;;;;4921746;29;20034;-71
2022/07/29 06:51:59;;;;;;;2.97;0.80;;;12.90;98.50;;;;;;4921737;29;20043;-70
2022/07/29 06:54:26;;;;;;;2.88;0.50;;;12.90;97.80;;;;;;4921836;29;20114;-70
2022/07/29 06:56:54;;;;;;;1.95;0.70;;;12.90;98.30;;;;;;4921756;29;20055;-70
2022/07/29 06:59:21;;;;;;;1.17;0.55;;;12.70;98.90;;;;;;4938647;29;20506;-70
2022/07/29 07:01:48;;;;;;;6.82;1.08;;;12.70;98.80;;;;;;4938758;29;20034;-70
2022/07/29 07:04:16;;;;;;;3.70;0.70;;;12.60;98.70;;;;;;4921409;29;20031;-70
2022/07/29 07:06:43;;;;;;;3.58;1.20;;;12.50;99.90;;;;;;4938619;29;20030;-71
2022/07/29 07:09:11;;;;;;;3.25;1.02;;;12.50;99.50;;;;;;4938660;29;20023;-69
2022/07/29 07:11:38;;;;;;;3.60;0.98;;;12.40;99.90;;;;;;4921324;29;20032;-70
2022/07/29 07:14:05;;;;;;;3.53;1.05;;;12.40;99.90;;;;;;4921266;29;20028;-70
2022/07/29 07:16:33;;;;;;;4.05;0.70;;;12.40;99.70;;;;;;4921301;29;20032;-69
2022/07/29 07:19:01;;;;;;;2.70;0.77;;;12.40;99.80;;;;;;4938405;29;20119;-70
2022/07/29 07:21:28;;;;;;;2.40;0.80;;;12.40;99.80;;;;;;4921359;29;20024;-69
2022/07/29 07:23:55;;;;;;;2.15;0.80;;;12.40;99.50;;;;;;4938050;29;20504;-69
2022/07/29 07:26:23;;;;;;;2.22;0.85;;;12.30;99.90;;;;;;4938165;29;20111;-69
2022/07/29 07:28:50;;;;;;;2.70;0.82;;;12.20;99.80;;;;;;4938172;29;20516;-69
2022/07/29 07:31:17;;;;;;;3.95;0.80;;;12.20;99.90;;;;;;4938170;29;20110;-71
2022/07/29 07:33:45;;;;;;;3.47;1.02;;;12.10;99.90;;;;;;4938345;29;20070;-71
2022/07/29 07:36:12;;;;;;;3.40;1.02;;;12.00;99.90;;;;;;4938107;29;20106;-71
2022/07/29 07:38:40;;;;;;;2.72;0.80;;;12.00;99.90;;;;;;4937753;29;20181;-70
2022/07/29 07:41:07;;;;;;;4.25;1.10;;;11.90;99.90;;;;;;4920618;29;20046;-70
2022/07/29 07:43:34;;;;;;;3.25;1.20;;;11.90;99.90;;;;;;4920786;29;20024;-69
2022/07/29 07:46:01;;;;;;;5.97;1.45;;;11.80;99.90;;;;;;4920674;29;20023;-70
2022/07/29 07:48:29;;;;;;;5.18;1.45;;;11.90;99.90;;;;;;4937899;29;20024;-70
2022/07/29 07:50:57;;;;;;;2.75;1.08;;;11.90;99.90;;;;;;4904858;29;20039;-70
2022/07/29 07:53:25;;;;;;;3.35;1.08;;;11.90;99.90;;;;;;4936547;29;20102;-69
2022/07/29 07:55:52;;;;;;;4.03;1.30;;;11.80;99.90;;;;;;4920849;29;20397;-69
2022/07/29 07:58:20;;;;;;;3.50;1.30;;;11.90;99.90;;;;;;4937496;29;20061;-69
2022/07/29 08:00:47;;;;;;;7.10;1.75;;;11.80;99.90;;;;;;4937555;29;20103;-68
2022/07/29 08:03:14;;;;;;;4.57;1.90;;;11.80;99.90;;;;;;4920194;29;20027;-69
2022/07/29 08:05:42;;;;;;;4.68;1.55;;;11.80;99.90;;;;;;4920252;29;20031;-69
2022/07/29 08:08:09;;;;;;;2.78;1.17;;;11.80;99.90;;;;;;4937483;29;20032;-70
2022/07/29 08:13:25;;;;;;;4.90;1.25;;;11.90;99.90;;;;;;4937752;29;20420;-68
2022/07/29 08:15:59;;;;;;;2.80;1.10;;;11.80;99.90;;;;;;4920276;29;20063;-68
2022/07/29 08:18:29;;;;;;;3.92;1.52;;;11.80;99.90;;;;;;4920200;29;20032;-68
2022/07/29 08:20:57;;;;;;;4.13;1.95;;;11.70;99.90;;;;;;4920066;29;20079;-69
2022/07/29 08:23:26;;;;;;;3.65;1.63;;;11.70;99.90;;;;;;4919708;29;20091;-69
2022/07/29 08:25:54;;;;;;;2.63;1.27;;;11.60;99.90;;;;;;4937156;29;20024;-69
2022/07/29 08:28:21;;;;;;;5.57;1.52;;;11.70;99.90;;;;;;4919909;29;20037;-69
2022/07/29 08:30:48;;;;;;;4.40;1.35;;;11.80;99.90;;;;;;4936639;29;20042;-70
2022/07/29 08:33:16;;;;;;;4.55;1.60;;;11.80;99.90;;;;;;4936971;29;20027;-69
2022/07/29 08:35:44;;;;;;;4.25;1.25;;;11.80;99.90;;;;;;4919871;29;20036;-70
2022/07/29 08:38:11;;;;;;;4.13;1.50;;;11.80;99.90;;;;;;4919750;29;20071;-70
2022/07/29 08:40:39;;;;;;;5.95;1.83;;;11.70;99.90;;;;;;4937014;29;20102;-69
2022/07/29 08:43:08;;;;;;;4.95;1.48;;;11.60;99.90;;;;;;4919759;29;20024;-69
2022/07/29 08:45:54;;;;;;;6.47;1.50;;;11.60;99.90;;;;;;4919896;29;20028;-70
2022/07/29 08:48:24;;;;;;;3.53;1.60;;;11.60;99.90;;;;;;4937173;29;20023;-69
2022/07/29 08:50:56;;;;;;;3.63;1.95;;;11.50;99.90;;;;;;4919628;29;20396;-71
2022/07/29 08:53:48;;;;;;;5.72;2.17;;;11.60;99.90;;;;;;5091143;27;20387;-71
2022/07/29 08:56:19;;;;;;;7.25;2.42;;;11.50;99.90;;;;;;5091125;28;20496;-72
2022/07/29 08:58:48;;;;;;;7.65;2.92;;;11.60;99.90;;;;;;5089477;28;20078;-70
2022/07/29 09:01:21;;;;;;;4.63;2.30;;;11.60;99.90;;;;;;5090874;28;20449;-71
2022/07/29 09:03:49;;;;;;;3.65;1.80;;;11.60;99.90;;;;;;5089866;28;20032;-71
2022/07/29 09:06:19;;;;;;;4.85;1.60;;;11.60;99.90;;;;;;5090888;28;20021;-76
2022/07/29 09:08:47;;;;;;;3.47;1.58;;;11.60;99.90;;;;;;5089548;28;20061;-72
2022/07/29 09:11:15;;;;;;;7.20;2.35;;;11.60;99.90;;;;;;5090662;28;20031;-71
2022/07/29 09:13:44;;;;;;;3.88;1.40;;;11.70;99.90;;;;;;5090803;28;20028;-74
2022/07/29 09:16:11;;;;;;;3.58;1.80;;;11.70;99.90;;;;;;5089265;28;20020;-72
2022/07/29 09:18:42;;;;;;;5.57;2.47;;;11.60;99.90;;;;;;5090520;28;20366;-72
2022/07/29 09:24:04;;;;;;;;;;;11.50;99.90;;;;;;5091197;28;20032;-71
2022/07/29 09:26:33;;;;;;;5.63;1.80;;;11.40;99.90;;;;;;5090409;28;19909;-73
2022/07/29 09:29:08;;;;;;;7.03;2.20;;;11.50;99.90;;;;;;5090530;28;20065;-72
2022/07/29 09:31:38;;;;;;;6.80;2.20;;;11.50;99.90;;;;;;5089473;28;20035;-72
2022/07/29 09:34:06;;;;;;;5.57;1.83;;;11.50;99.90;;;;;;5088943;28;20029;-73
2022/07/29 09:36:44;;;;;;;6.05;1.95;;;11.70;99.90;;;;;;5090097;28;20024;-72
2022/07/29 09:39:13;;;;;;;3.75;1.65;;;11.70;99.90;;;;;;5090127;28;20439;-73
2022/07/29 09:41:50;;;;;;;6.72;2.38;;;11.70;99.90;;;;;;5088497;28;20523;-73
2022/07/29 09:44:18;;;;;;;7.32;2.85;;;11.70;99.90;;;;;;5088830;28;20389;-74
2022/07/29 09:47:06;;;;;;;5.13;2.53;;;11.50;99.90;;;;;;5088592;28;20078;-72
2022/07/29 09:49:35;;;;;;;6.00;2.42;;;11.40;99.90;;;;;;5088507;28;20488;-72
2022/07/29 09:52:08;;;;;;;4.15;2.10;;;11.40;99.90;;;;;;5088362;28;20508;-71
2022/07/29 09:54:39;;;;;;;5.40;2.13;;;11.40;99.90;;;;;;5089734;28;20012;-72
2022/07/29 09:57:22;;;;;;;5.95;2.20;;;11.30;99.90;;;;;;5088236;28;20024;-72
2022/07/29 10:00:10;;;;;;;6.07;2.67;;;11.30;99.90;;;;;;5089010;28;20070;-73
2022/07/29 10:02:39;;;;;;;7.13;2.33;;;11.40;99.90;;;;;;5088320;28;20387;-72
2022/07/29 10:05:18;;;;;;;4.78;2.22;;;11.40;99.90;;;;;;5075619;28;20020;-70
2022/07/29 10:07:55;;;;;;;6.38;2.30;;;11.40;99.90;;;;;;5074847;28;20517;-70
2022/07/29 10:10:27;;;;;;;5.20;2.42;;;11.40;99.90;;;;;;5074586;28;20032;-72
2022/07/29 10:13:06;;;;;;;4.05;2.58;;;11.40;99.90;;;;;;5074410;28;20029;-72
2022/07/29 10:15:44;;;;;;;5.38;2.42;;;11.40;99.90;;;;;;5076191;28;20021;-72
2022/07/29 10:18:17;;;;;;;4.47;2.42;;;11.40;99.90;;;;;;5076004;28;20025;-70
2022/07/29 10:20:47;;;;;;;9.13;2.63;;;11.30;99.90;;;;;;5075633;28;20491;-71
2022/07/29 10:23:15;;;;;;;5.80;2.80;;;11.30;99.90;;;;;;5075532;28;20024;-71
2022/07/29 10:25:43;;;;;;;6.05;2.40;;;11.20;99.90;;;;;;5075770;28;20495;-72
2022/07/29 10:28:10;;;;;;;6.38;3.28;;;11.10;99.90;;;;;;5074794;28;20059;-72
2022/07/29 10:30:39;;;;;;;7.25;3.95;;;11.00;99.90;;;;;;5074697;28;20027;-73
2022/07/29 10:33:10;;;;;;;5.20;3.13;;;10.90;99.90;;;;;;5075325;28;20025;-70
2022/07/29 10:36:02;;;;;;;6.50;3.33;;;10.90;99.90;;;;;;5075437;28;20361;-71
2022/07/29 10:39:05;;;;;;;9.35;3.28;;;10.80;99.90;;;;;;5075545;28;20025;-71
2022/07/29 10:41:46;;;;;;;7.80;3.35;;;10.70;99.90;;;;;;5074464;28;20159;-72
2022/07/29 10:44:20;;;;;;;8.48;3.42;;;10.60;99.90;;;;;;5075587;28;20017;-70
2022/07/29 10:46:48;;;;;;;11.65;3.45;;;10.60;99.90;;;;;;5074309;28;20178;-71
2022/07/29 10:49:29;;;;;;;13.32;3.35;;;10.50;99.90;;;;;;5073609;28;20043;-72
2022/07/29 10:51:55;;;;;;;;;;;10.40;99.90;;;;;;5073868;28;20048;-71
2022/07/29 10:54:42;;;;;;;8.77;3.58;;;10.40;99.90;;;;;;5075301;28;19974;-70
2022/07/29 10:57:21;;;;;;;8.30;3.55;;;10.30;99.90;;;;;;5074918;28;20028;-71
2022/07/29 11:00:12;;;;;;;7.93;3.75;;;10.20;99.90;;;;;;5075180;28;20095;-71
2022/07/29 11:02:40;;;;;;;7.00;3.63;;;10.20;99.90;;;;;;5064060;28;20028;-71
2022/07/29 11:05:17;;;;;;;8.82;3.92;;;10.10;99.90;;;;;;5073489;28;20071;-71
2022/07/29 11:08:19;;;;;;;7.13;3.63;;;10.00;99.90;;;;;;5074202;28;20060;-73
2022/07/29 11:10:48;;;;;;;8.00;4.13;;;10.00;99.90;;;;;;5073393;28;20438;-71
2022/07/29 11:13:47;;;;;;;7.45;3.65;;;10.00;99.90;;;;;;5074697;28;20016;-72
2022/07/29 11:16:16;;;;;;;6.85;3.60;;;9.90;99.90;;;;;;5068402;28;20041;-72
2022/07/29 11:19:15;;;;;;;8.00;4.07;;;9.80;99.90;;;;;;5073385;28;20079;-71
2022/07/29 11:21:49;;;;;;;8.95;4.93;;;9.80;99.90;;;;;;5074452;28;20039;-72
2022/07/29 11:24:31;;;;;;;8.93;4.80;;;9.80;99.90;;;;;;5074399;28;20082;-72
2022/07/29 11:27:17;;;;;;;10.45;4.38;;;9.70;99.90;;;;;;5074503;28;20031;-72
2022/07/29 11:29:56;;;;;;;10.45;4.65;;;9.60;99.90;;;;;;5073063;28;20396;-72
2022/07/29 11:32:26;;;;;;;9.18;4.35;;;9.60;99.90;;;;;;5072909;28;20024;-72
2022/07/29 11:35:26;;;;;;;9.35;4.70;;;9.60;99.90;;;;;;5074171;28;20033;-71
2022/07/29 11:38:28;;;;;;;9.10;4.43;;;9.50;99.90;;;;;;5044060;28;20489;-71
2022/07/29 11:41:26;;;;;;;9.48;4.88;;;9.50;99.90;;;;;;5073925;28;20012;-71
2022/07/29 11:43:57;;;;;;;11.35;5.43;;;9.40;99.90;;;;;;5074088;28;20020;-71
2022/07/29 11:46:49;;;;;;;11.40;4.75;;;9.40;99.90;;;;;;5072999;28;20441;-72
2022/07/29 11:49:27;;;;;;;7.80;4.43;;;9.40;99.90;;;;;;5074226;28;20500;-71
2022/07/29 11:51:56;;;;;;;6.47;3.85;;;9.30;99.90;;;;;;5072226;28;20049;-71
2022/07/29 11:54:35;;;;;;;8.75;4.95;;;9.30;99.90;;;;;;5072597;28;20020;-72
2022/07/29 11:57:11;;;;;;;7.95;3.83;;;9.30;99.90;;;;;;5072875;28;20416;-72
2022/07/29 11:59:44;;;;;;;6.13;3.50;;;9.30;99.90;;;;;;5072694;28;20028;-71
2022/07/29 12:02:12;;;;;;;6.90;3.00;;;9.30;99.90;;;;;;5072388;28;20480;-71
2022/07/29 12:04:51;;;;;;;11.68;3.92;;;9.40;99.90;;;;;;5073877;28;20033;-72
2022/07/29 12:07:20;;;;;;;7.00;3.00;;;9.40;99.90;;;;;;5073487;28;20024;-71
2022/07/29 12:09:51;;;;;;;6.13;2.50;;;9.30;99.90;;;;;;5056384;28;20496;-71
2022/07/29 12:12:19;;;;;;;6.97;3.10;;;9.40;99.90;;;;;;5072711;28;20115;-71
2022/07/29 12:14:47;;;;;;;6.55;3.00;;;9.50;99.90;;;;;;5073497;28;20078;-70
2022/07/29 12:17:32;;;;;;;8.48;3.10;;;9.60;99.90;;;;;;5073613;28;20020;-71
2022/07/29 12:20:04;;;;;;;6.45;2.67;;;9.70;99.90;;;;;;5074074;28;20388;-72
2022/07/29 12:22:36;;;;;;;6.20;2.65;;;9.80;99.90;;;;;;5074204;28;20043;-72
2022/07/29 12:25:10;;;;;;;6.45;2.78;;;9.80;99.90;;;;;;5072447;28;20029;-72
2022/07/29 12:27:38;;;;;;;7.25;2.53;;;9.80;99.90;;;;;;5073761;28;20052;-73
2022/07/29 12:30:12;;;;;;;6.03;2.70;;;9.80;99.90;;;;;;5073234;28;20024;-74
2022/07/29 12:32:42;;;;;;;5.82;2.53;;;9.70;99.90;;;;;;5055577;28;20032;-72
2022/07/29 12:35:19;;;;;;;5.05;2.55;;;9.70;99.90;;;;;;5073580;28;20029;-72
2022/07/29 12:37:48;;;;;;;9.52;2.67;;;9.70;99.90;;;;;;5072264;28;20541;-73
2022/07/29 12:40:17;;;;;;;6.78;2.90;;;9.60;99.90;;;;;;5073477;28;20032;-73
2022/07/29 12:43:09;;;;;;;6.30;2.67;;;9.60;99.90;;;;;;5055411;28;20037;-74
2022/07/29 12:45:38;;;;;;;5.93;2.72;;;9.60;99.90;;;;;;5071962;28;20374;-74
2022/07/29 12:48:09;;;;;;;6.13;3.00;;;9.60;99.90;;;;;;5072193;28;20048;-72
2022/07/29 12:50:52;;;;;;;6.45;2.58;;;9.70;99.90;;;;;;5073465;28;20033;-74
2022/07/29 12:53:20;;;;;;;7.60;3.20;;;9.80;99.90;;;;;;5055233;28;20048;-73
2022/07/29 12:55:51;;;;;;;4.50;2.40;;;9.90;99.90;;;;;;5055541;28;20039;-73
2022/07/29 12:58:42;;;;;;;6.65;2.80;;;9.90;99.90;;;;;;5072135;28;20500;-73
2022/07/29 13:01:17;;;;;;;6.00;2.88;;;9.80;99.90;;;;;;5072531;28;20056;-72
2022/07/29 13:04:02;;;;;;;6.50;2.90;;;9.80;99.90;;;;;;5072923;28;20107;-72
2022/07/29 13:06:44;;;;;;;6.15;3.13;;;9.70;99.90;;;;;;5071670;28;20112;-72
2022/07/29 13:09:22;;;;;;;7.18;3.10;;;9.70;99.90;;;;;;5073379;28;20047;-72
2022/07/29 13:11:51;;;;;;;6.65;3.22;;;9.60;99.90;;;;;;5071944;28;20116;-72
2022/07/29 13:14:38;;;;;;;7.40;2.90;;;9.60;99.90;;;;;;5072780;28;20377;-71
2022/07/29 13:17:12;;;;;;;7.68;2.97;;;9.60;99.90;;;;;;5073188;28;20024;-72
2022/07/29 13:19:41;;;;;;;8.13;3.30;;;9.60;99.90;;;;;;5071934;28;20469;-72